sensor_id;sensor_type;location;lat;lon;timestamp;P1;durP1;ratioP1;P2;durP2;ratioP2
18720;SDS011;9489;50.948;3.114;2023-03-01T00:01:14;9.00;;;8.20;;
18720;SDS011;9489;50.948;3.114;2023-03-01T00:03:42;9.30;;;8.40;;
18720;SDS011;9489;50.948;3.114;2023-03-01T00:06:08;10.57;;;9.23;;
18720;SDS011;9489;50.948;3.114;2023-03-01T00:08:34;9.00;;;8.20;;
18720;SDS011;9489;50.948;3.114;2023-03-01T00:11:01;10.03;;;9.10;;
18720;SDS011;9489;50.948;3.114;2023-03-01T00:13:30;10.10;;;8.33;;
18720;SDS011;9489;50.948;3.114;2023-03-01T00:15:55;10.07;;;9.07;;
18720;SDS011;9489;50.948;3.114;2023-03-01T00:18:21;9.77;;;8.77;;
18720;SDS011;9489;50.948;3.114;2023-03-01T00:20:50;10.80;;;9.77;;
18720;SDS011;9489;50.948;3.114;2023-03-01T00:23:17;9.27;;;8.37;;
18720;SDS011;9489;50.948;3.114;2023-03-01T00:25:43;9.93;;;9.03;;
18720;SDS011;9489;50.948;3.114;2023-03-01T00:28:09;9.70;;;8.67;;
18720;SDS011;9489;50.948;3.114;2023-03-01T00:30:34;9.03;;;8.17;;
18720;SDS011;9489;50.948;3.114;2023-03-01T00:33:00;10.33;;;9.30;;
18720;SDS011;9489;50.948;3.114;2023-03-01T00:35:25;9.73;;;8.73;;
18720;SDS011;9489;50.948;3.114;2023-03-01T00:37:51;9.00;;;8.20;;
18720;SDS011;9489;50.948;3.114;2023-03-01T00:40:23;10.40;;;9.37;;
18720;SDS011;9489;50.948;3.114;2023-03-01T00:42:49;9.73;;;8.73;;
18720;SDS011;9489;50.948;3.114;2023-03-01T00:45:15;10.23;;;9.30;;
18720;SDS011;9489;50.948;3.114;2023-03-01T00:47:41;10.37;;;9.10;;
18720;SDS011;9489;50.948;3.114;2023-03-01T00:50:07;10.77;;;9.47;;
18720;SDS011;9489;50.948;3.114;2023-03-01T00:52:33;10.17;;;9.27;;
18720;SDS011;9489;50.948;3.114;2023-03-01T00:54:59;10.40;;;9.50;;
18720;SDS011;9489;50.948;3.114;2023-03-01T00:57:25;11.27;;;9.73;;
18720;SDS011;9489;50.948;3.114;2023-03-01T00:59:50;9.90;;;9.07;;
18720;SDS011;9489;50.948;3.114;2023-03-01T01:02:17;10.67;;;9.57;;
18720;SDS011;9489;50.948;3.114;2023-03-01T01:04:44;10.43;;;9.53;;
18720;SDS011;9489;50.948;3.114;2023-03-01T01:07:10;10.70;;;9.70;;
18720;SDS011;9489;50.948;3.114;2023-03-01T01:09:35;9.97;;;9.07;;
18720;SDS011;9489;50.948;3.114;2023-03-01T01:12:02;12.63;;;9.37;;
18720;SDS011;9489;50.948;3.114;2023-03-01T01:14:28;10.07;;;9.10;;
18720;SDS011;9489;50.948;3.114;2023-03-01T01:16:53;10.30;;;9.30;;
18720;SDS011;9489;50.948;3.114;2023-03-01T01:19:19;10.20;;;9.20;;
18720;SDS011;9489;50.948;3.114;2023-03-01T01:21:45;14.47;;;9.90;;
18720;SDS011;9489;50.948;3.114;2023-03-01T01:24:11;10.60;;;9.60;;
18720;SDS011;9489;50.948;3.114;2023-03-01T01:26:37;10.47;;;9.57;;
18720;SDS011;9489;50.948;3.114;2023-03-01T01:29:03;11.83;;;10.73;;
18720;SDS011;9489;50.948;3.114;2023-03-01T01:31:30;11.40;;;10.37;;
18720;SDS011;9489;50.948;3.114;2023-03-01T01:33:57;11.97;;;10.77;;
18720;SDS011;9489;50.948;3.114;2023-03-01T01:36:25;11.73;;;10.63;;
18720;SDS011;9489;50.948;3.114;2023-03-01T01:38:50;12.13;;;10.90;;
18720;SDS011;9489;50.948;3.114;2023-03-01T01:41:17;11.20;;;10.20;;
18720;SDS011;9489;50.948;3.114;2023-03-01T01:43:44;11.47;;;10.37;;
18720;SDS011;9489;50.948;3.114;2023-03-01T01:46:30;12.13;;;11.03;;
18720;SDS011;9489;50.948;3.114;2023-03-01T01:49:04;12.87;;;11.47;;
18720;SDS011;9489;50.948;3.114;2023-03-01T01:51:38;11.97;;;10.97;;
18720;SDS011;9489;50.948;3.114;2023-03-01T01:54:10;12.63;;;11.33;;
18720;SDS011;9489;50.948;3.114;2023-03-01T01:56:39;12.50;;;11.40;;
18720;SDS011;9489;50.948;3.114;2023-03-01T01:59:09;13.57;;;12.17;;
18720;SDS011;9489;50.948;3.114;2023-03-01T02:01:36;12.27;;;11.17;;
18720;SDS011;9489;50.948;3.114;2023-03-01T02:04:02;14.00;;;12.77;;
18720;SDS011;9489;50.948;3.114;2023-03-01T02:06:29;14.60;;;13.30;;
18720;SDS011;9489;50.948;3.114;2023-03-01T02:09:03;13.63;;;12.53;;
18720;SDS011;9489;50.948;3.114;2023-03-01T02:11:35;14.87;;;13.47;;
18720;SDS011;9489;50.948;3.114;2023-03-01T02:14:02;15.83;;;13.67;;
18720;SDS011;9489;50.948;3.114;2023-03-01T02:16:28;15.50;;;13.90;;
18720;SDS011;9489;50.948;3.114;2023-03-01T02:18:56;15.13;;;13.77;;
18720;SDS011;9489;50.948;3.114;2023-03-01T02:21:42;16.17;;;14.57;;
18720;SDS011;9489;50.948;3.114;2023-03-01T02:24:31;15.87;;;14.40;;
18720;SDS011;9489;50.948;3.114;2023-03-01T02:27:05;16.13;;;14.63;;
18720;SDS011;9489;50.948;3.114;2023-03-01T02:29:31;17.17;;;15.40;;
18720;SDS011;9489;50.948;3.114;2023-03-01T02:31:58;15.90;;;14.40;;
18720;SDS011;9489;50.948;3.114;2023-03-01T02:34:25;16.73;;;15.23;;
18720;SDS011;9489;50.948;3.114;2023-03-01T02:36:56;16.90;;;15.30;;
18720;SDS011;9489;50.948;3.114;2023-03-01T02:42:31;17.50;;;15.90;;
18720;SDS011;9489;50.948;3.114;2023-03-01T02:45:00;18.03;;;16.30;;
18720;SDS011;9489;50.948;3.114;2023-03-01T02:47:26;17.37;;;15.67;;
18720;SDS011;9489;50.948;3.114;2023-03-01T02:49:52;16.63;;;15.13;;
18720;SDS011;9489;50.948;3.114;2023-03-01T02:55:03;17.93;;;15.83;;
18720;SDS011;9489;50.948;3.114;2023-03-01T02:57:36;18.77;;;16.97;;
18720;SDS011;9489;50.948;3.114;2023-03-01T03:00:05;19.83;;;16.77;;
18720;SDS011;9489;50.948;3.114;2023-03-01T03:02:35;19.03;;;17.23;;
18720;SDS011;9489;50.948;3.114;2023-03-01T03:07:38;20.07;;;18.07;;
18720;SDS011;9489;50.948;3.114;2023-03-01T03:10:06;19.73;;;17.90;;
18720;SDS011;9489;50.948;3.114;2023-03-01T03:12:34;18.73;;;17.13;;
18720;SDS011;9489;50.948;3.114;2023-03-01T03:14:59;19.20;;;17.50;;
18720;SDS011;9489;50.948;3.114;2023-03-01T03:17:25;19.83;;;18.10;;
18720;SDS011;9489;50.948;3.114;2023-03-01T03:19:50;19.93;;;17.93;;
18720;SDS011;9489;50.948;3.114;2023-03-01T03:22:16;20.40;;;18.50;;
18720;SDS011;9489;50.948;3.114;2023-03-01T03:24:42;19.37;;;17.63;;
18720;SDS011;9489;50.948;3.114;2023-03-01T03:27:07;20.00;;;18.10;;
18720;SDS011;9489;50.948;3.114;2023-03-01T03:29:33;20.80;;;18.80;;
18720;SDS011;9489;50.948;3.114;2023-03-01T03:31:59;19.63;;;17.93;;
18720;SDS011;9489;50.948;3.114;2023-03-01T03:34:24;18.63;;;16.73;;
18720;SDS011;9489;50.948;3.114;2023-03-01T03:36:53;19.77;;;17.93;;
18720;SDS011;9489;50.948;3.114;2023-03-01T03:39:24;20.33;;;18.37;;
18720;SDS011;9489;50.948;3.114;2023-03-01T03:41:52;19.97;;;17.87;;
18720;SDS011;9489;50.948;3.114;2023-03-01T03:44:18;20.30;;;18.40;;
18720;SDS011;9489;50.948;3.114;2023-03-01T03:46:43;20.87;;;18.87;;
18720;SDS011;9489;50.948;3.114;2023-03-01T03:49:09;20.37;;;18.43;;
18720;SDS011;9489;50.948;3.114;2023-03-01T03:51:35;20.47;;;18.47;;
18720;SDS011;9489;50.948;3.114;2023-03-01T03:54:00;20.77;;;18.73;;
18720;SDS011;9489;50.948;3.114;2023-03-01T03:56:26;19.87;;;17.90;;
18720;SDS011;9489;50.948;3.114;2023-03-01T03:58:52;21.13;;;19.13;;
18720;SDS011;9489;50.948;3.114;2023-03-01T04:01:18;21.33;;;19.27;;
18720;SDS011;9489;50.948;3.114;2023-03-01T04:03:44;21.27;;;19.27;;
18720;SDS011;9489;50.948;3.114;2023-03-01T04:06:12;20.57;;;18.60;;
18720;SDS011;9489;50.948;3.114;2023-03-01T04:08:40;20.13;;;18.23;;
18720;SDS011;9489;50.948;3.114;2023-03-01T04:11:06;20.67;;;18.67;;
18720;SDS011;9489;50.948;3.114;2023-03-01T04:13:51;19.70;;;17.83;;
18720;SDS011;9489;50.948;3.114;2023-03-01T04:16:17;20.77;;;18.83;;
18720;SDS011;9489;50.948;3.114;2023-03-01T04:18:44;20.13;;;18.03;;
18720;SDS011;9489;50.948;3.114;2023-03-01T04:21:09;20.97;;;18.97;;
18720;SDS011;9489;50.948;3.114;2023-03-01T04:23:36;21.27;;;19.17;;
18720;SDS011;9489;50.948;3.114;2023-03-01T04:26:02;20.07;;;18.23;;
18720;SDS011;9489;50.948;3.114;2023-03-01T04:28:40;20.70;;;18.60;;
18720;SDS011;9489;50.948;3.114;2023-03-01T04:31:11;21.67;;;19.57;;
18720;SDS011;9489;50.948;3.114;2023-03-01T04:33:41;22.17;;;20.07;;
18720;SDS011;9489;50.948;3.114;2023-03-01T04:36:09;21.43;;;19.30;;
18720;SDS011;9489;50.948;3.114;2023-03-01T04:38:38;21.70;;;19.60;;
18720;SDS011;9489;50.948;3.114;2023-03-01T04:41:05;22.90;;;20.80;;
18720;SDS011;9489;50.948;3.114;2023-03-01T04:43:33;22.53;;;20.27;;
18720;SDS011;9489;50.948;3.114;2023-03-01T04:46:00;20.57;;;18.47;;
18720;SDS011;9489;50.948;3.114;2023-03-01T04:48:31;22.63;;;20.47;;
18720;SDS011;9489;50.948;3.114;2023-03-01T04:50:58;21.90;;;19.77;;
18720;SDS011;9489;50.948;3.114;2023-03-01T04:53:24;23.10;;;20.70;;
18720;SDS011;9489;50.948;3.114;2023-03-01T04:55:50;23.17;;;20.83;;
18720;SDS011;9489;50.948;3.114;2023-03-01T04:58:16;20.03;;;18.03;;
18720;SDS011;9489;50.948;3.114;2023-03-01T05:00:41;22.37;;;19.93;;
18720;SDS011;9489;50.948;3.114;2023-03-01T05:03:07;21.47;;;19.30;;
18720;SDS011;9489;50.948;3.114;2023-03-01T05:05:35;21.97;;;19.83;;
18720;SDS011;9489;50.948;3.114;2023-03-01T05:08:03;23.23;;;20.80;;
18720;SDS011;9489;50.948;3.114;2023-03-01T05:10:34;22.63;;;20.33;;
18720;SDS011;9489;50.948;3.114;2023-03-01T05:13:01;22.53;;;20.23;;
18720;SDS011;9489;50.948;3.114;2023-03-01T05:15:29;21.57;;;19.33;;
18720;SDS011;9489;50.948;3.114;2023-03-01T05:17:56;21.70;;;19.50;;
18720;SDS011;9489;50.948;3.114;2023-03-01T05:20:24;21.20;;;19.10;;
18720;SDS011;9489;50.948;3.114;2023-03-01T05:22:55;21.60;;;19.40;;
18720;SDS011;9489;50.948;3.114;2023-03-01T05:25:23;22.30;;;20.10;;
18720;SDS011;9489;50.948;3.114;2023-03-01T05:27:50;22.97;;;20.17;;
18720;SDS011;9489;50.948;3.114;2023-03-01T05:30:16;21.93;;;19.83;;
18720;SDS011;9489;50.948;3.114;2023-03-01T05:32:43;23.17;;;20.63;;
18720;SDS011;9489;50.948;3.114;2023-03-01T05:35:14;23.13;;;20.83;;
18720;SDS011;9489;50.948;3.114;2023-03-01T05:37:42;22.27;;;20.07;;
18720;SDS011;9489;50.948;3.114;2023-03-01T05:40:12;21.50;;;19.20;;
18720;SDS011;9489;50.948;3.114;2023-03-01T05:42:47;23.10;;;20.47;;
18720;SDS011;9489;50.948;3.114;2023-03-01T05:45:14;23.40;;;21.00;;
18720;SDS011;9489;50.948;3.114;2023-03-01T05:47:41;22.60;;;20.40;;
18720;SDS011;9489;50.948;3.114;2023-03-01T05:50:09;21.10;;;18.93;;
18720;SDS011;9489;50.948;3.114;2023-03-01T05:52:38;22.13;;;19.87;;
18720;SDS011;9489;50.948;3.114;2023-03-01T05:55:04;24.20;;;20.97;;
18720;SDS011;9489;50.948;3.114;2023-03-01T05:57:30;22.97;;;19.83;;
18720;SDS011;9489;50.948;3.114;2023-03-01T05:59:56;23.53;;;21.00;;
18720;SDS011;9489;50.948;3.114;2023-03-01T06:02:21;23.00;;;20.43;;
18720;SDS011;9489;50.948;3.114;2023-03-01T06:04:47;23.03;;;20.50;;
18720;SDS011;9489;50.948;3.114;2023-03-01T06:07:13;22.77;;;20.47;;
18720;SDS011;9489;50.948;3.114;2023-03-01T06:09:38;23.27;;;19.90;;
18720;SDS011;9489;50.948;3.114;2023-03-01T06:12:04;23.13;;;20.83;;
18720;SDS011;9489;50.948;3.114;2023-03-01T06:14:29;22.50;;;20.30;;
18720;SDS011;9489;50.948;3.114;2023-03-01T06:16:55;23.23;;;20.67;;
18720;SDS011;9489;50.948;3.114;2023-03-01T06:19:21;24.50;;;20.53;;
18720;SDS011;9489;50.948;3.114;2023-03-01T06:21:47;23.73;;;21.23;;
18720;SDS011;9489;50.948;3.114;2023-03-01T06:24:12;23.47;;;20.87;;
18720;SDS011;9489;50.948;3.114;2023-03-01T06:26:38;24.03;;;19.60;;
18720;SDS011;9489;50.948;3.114;2023-03-01T06:29:03;24.60;;;21.93;;
18720;SDS011;9489;50.948;3.114;2023-03-01T06:31:29;22.63;;;20.23;;
18720;SDS011;9489;50.948;3.114;2023-03-01T06:33:54;21.83;;;19.37;;
18720;SDS011;9489;50.948;3.114;2023-03-01T06:36:23;22.13;;;19.93;;
18720;SDS011;9489;50.948;3.114;2023-03-01T06:38:48;22.50;;;20.10;;
18720;SDS011;9489;50.948;3.114;2023-03-01T06:41:15;24.90;;;21.57;;
18720;SDS011;9489;50.948;3.114;2023-03-01T06:43:54;23.33;;;20.17;;
18720;SDS011;9489;50.948;3.114;2023-03-01T06:46:19;23.13;;;20.03;;
18720;SDS011;9489;50.948;3.114;2023-03-01T06:48:46;21.43;;;19.33;;
18720;SDS011;9489;50.948;3.114;2023-03-01T06:51:12;21.70;;;19.40;;
18720;SDS011;9489;50.948;3.114;2023-03-01T06:53:38;21.83;;;19.60;;
18720;SDS011;9489;50.948;3.114;2023-03-01T06:56:03;21.70;;;19.07;;
18720;SDS011;9489;50.948;3.114;2023-03-01T06:58:29;23.50;;;19.37;;
18720;SDS011;9489;50.948;3.114;2023-03-01T07:00:55;21.50;;;18.93;;
18720;SDS011;9489;50.948;3.114;2023-03-01T07:03:20;21.17;;;19.00;;
18720;SDS011;9489;50.948;3.114;2023-03-01T07:05:48;25.80;;;19.90;;
18720;SDS011;9489;50.948;3.114;2023-03-01T07:08:14;20.57;;;18.57;;
18720;SDS011;9489;50.948;3.114;2023-03-01T07:10:40;21.70;;;19.40;;
18720;SDS011;9489;50.948;3.114;2023-03-01T07:13:06;22.20;;;18.50;;
18720;SDS011;9489;50.948;3.114;2023-03-01T07:15:32;22.53;;;19.27;;
18720;SDS011;9489;50.948;3.114;2023-03-01T07:17:57;19.33;;;17.37;;
18720;SDS011;9489;50.948;3.114;2023-03-01T07:20:23;23.43;;;18.77;;
18720;SDS011;9489;50.948;3.114;2023-03-01T07:22:53;18.37;;;16.57;;
18720;SDS011;9489;50.948;3.114;2023-03-01T07:25:21;19.30;;;16.63;;
18720;SDS011;9489;50.948;3.114;2023-03-01T07:27:50;20.30;;;17.70;;
18720;SDS011;9489;50.948;3.114;2023-03-01T07:30:17;19.70;;;17.60;;
18720;SDS011;9489;50.948;3.114;2023-03-01T07:32:43;18.23;;;16.33;;
18720;SDS011;9489;50.948;3.114;2023-03-01T07:35:10;17.90;;;16.10;;
18720;SDS011;9489;50.948;3.114;2023-03-01T07:37:36;17.00;;;15.27;;
18720;SDS011;9489;50.948;3.114;2023-03-01T07:40:01;17.40;;;15.70;;
18720;SDS011;9489;50.948;3.114;2023-03-01T07:42:27;15.68;;;14.00;;
18720;SDS011;9489;50.948;3.114;2023-03-01T07:44:53;15.50;;;14.10;;
18720;SDS011;9489;50.948;3.114;2023-03-01T07:47:18;14.60;;;13.07;;
18720;SDS011;9489;50.948;3.114;2023-03-01T07:49:44;14.88;;;13.48;;
18720;SDS011;9489;50.948;3.114;2023-03-01T07:52:10;13.88;;;12.68;;
18720;SDS011;9489;50.948;3.114;2023-03-01T07:54:37;13.30;;;12.18;;
18720;SDS011;9489;50.948;3.114;2023-03-01T07:57:02;14.75;;;13.30;;
18720;SDS011;9489;50.948;3.114;2023-03-01T07:59:28;13.90;;;12.60;;
18720;SDS011;9489;50.948;3.114;2023-03-01T08:01:57;13.95;;;12.70;;
18720;SDS011;9489;50.948;3.114;2023-03-01T08:04:23;13.68;;;12.38;;
18720;SDS011;9489;50.948;3.114;2023-03-01T08:06:50;13.50;;;12.35;;
18720;SDS011;9489;50.948;3.114;2023-03-01T08:09:16;12.75;;;11.55;;
18720;SDS011;9489;50.948;3.114;2023-03-01T08:11:42;14.70;;;13.40;;
18720;SDS011;9489;50.948;3.114;2023-03-01T08:14:07;13.57;;;12.32;;
18720;SDS011;9489;50.948;3.114;2023-03-01T08:16:33;12.48;;;11.48;;
18720;SDS011;9489;50.948;3.114;2023-03-01T08:19:04;12.35;;;11.27;;
18720;SDS011;9489;50.948;3.114;2023-03-01T08:21:34;11.68;;;10.75;;
18720;SDS011;9489;50.948;3.114;2023-03-01T08:24:00;12.00;;;10.95;;
18720;SDS011;9489;50.948;3.114;2023-03-01T08:26:26;11.85;;;10.73;;
18720;SDS011;9489;50.948;3.114;2023-03-01T08:28:52;11.45;;;10.43;;
18720;SDS011;9489;50.948;3.114;2023-03-01T08:31:23;10.75;;;9.88;;
18720;SDS011;9489;50.948;3.114;2023-03-01T08:33:51;9.88;;;8.98;;
18720;SDS011;9489;50.948;3.114;2023-03-01T08:36:23;10.93;;;10.02;;
18720;SDS011;9489;50.948;3.114;2023-03-01T08:38:50;11.57;;;10.60;;
18720;SDS011;9489;50.948;3.114;2023-03-01T08:41:17;11.60;;;10.40;;
18720;SDS011;9489;50.948;3.114;2023-03-01T08:43:42;11.35;;;10.32;;
18720;SDS011;9489;50.948;3.114;2023-03-01T08:46:08;10.85;;;9.93;;
18720;SDS011;9489;50.948;3.114;2023-03-01T08:48:35;10.77;;;9.88;;
18720;SDS011;9489;50.948;3.114;2023-03-01T08:51:34;10.73;;;9.80;;
18720;SDS011;9489;50.948;3.114;2023-03-01T08:53:54;10.90;;;9.90;;
18720;SDS011;9489;50.948;3.114;2023-03-01T08:56:19;10.18;;;9.18;;
18720;SDS011;9489;50.948;3.114;2023-03-01T08:58:45;9.35;;;8.52;;
18720;SDS011;9489;50.948;3.114;2023-03-01T09:01:14;10.18;;;9.38;;
18720;SDS011;9489;50.948;3.114;2023-03-01T09:03:42;13.65;;;12.50;;
18720;SDS011;9489;50.948;3.114;2023-03-01T09:06:08;9.52;;;8.82;;
18720;SDS011;9489;50.948;3.114;2023-03-01T09:08:34;10.80;;;9.93;;
18720;SDS011;9489;50.948;3.114;2023-03-01T09:11:02;10.20;;;9.40;;
18720;SDS011;9489;50.948;3.114;2023-03-01T09:13:33;9.27;;;8.48;;
18720;SDS011;9489;50.948;3.114;2023-03-01T09:15:59;9.35;;;8.50;;
18720;SDS011;9489;50.948;3.114;2023-03-01T09:18:26;9.15;;;8.38;;
18720;SDS011;9489;50.948;3.114;2023-03-01T09:20:52;9.75;;;8.95;;
18720;SDS011;9489;50.948;3.114;2023-03-01T09:23:20;8.85;;;8.05;;
18720;SDS011;9489;50.948;3.114;2023-03-01T09:25:46;9.02;;;8.23;;
18720;SDS011;9489;50.948;3.114;2023-03-01T09:28:11;8.98;;;8.15;;
18720;SDS011;9489;50.948;3.114;2023-03-01T09:30:37;9.00;;;8.13;;
18720;SDS011;9489;50.948;3.114;2023-03-01T09:33:03;9.02;;;8.32;;
18720;SDS011;9489;50.948;3.114;2023-03-01T09:35:28;8.45;;;7.63;;
18720;SDS011;9489;50.948;3.114;2023-03-01T09:37:54;8.02;;;7.32;;
18720;SDS011;9489;50.948;3.114;2023-03-01T09:40:21;8.73;;;8.02;;
18720;SDS011;9489;50.948;3.114;2023-03-01T09:43:07;8.88;;;8.07;;
18720;SDS011;9489;50.948;3.114;2023-03-01T09:45:45;8.77;;;8.07;;
18720;SDS011;9489;50.948;3.114;2023-03-01T09:48:22;8.82;;;8.13;;
18720;SDS011;9489;50.948;3.114;2023-03-01T09:50:51;8.45;;;7.57;;
18720;SDS011;9489;50.948;3.114;2023-03-01T09:53:18;7.40;;;6.70;;
18720;SDS011;9489;50.948;3.114;2023-03-01T09:56:05;7.18;;;6.38;;
18720;SDS011;9489;50.948;3.114;2023-03-01T09:58:58;7.38;;;6.78;;
18720;SDS011;9489;50.948;3.114;2023-03-01T10:06:38;7.25;;;6.63;;
18720;SDS011;9489;50.948;3.114;2023-03-01T10:09:12;7.30;;;6.70;;
18720;SDS011;9489;50.948;3.114;2023-03-01T10:11:49;7.22;;;6.63;;
18720;SDS011;9489;50.948;3.114;2023-03-01T10:14:31;7.20;;;6.60;;
18720;SDS011;9489;50.948;3.114;2023-03-01T10:16:58;6.20;;;5.70;;
18720;SDS011;9489;50.948;3.114;2023-03-01T10:19:31;6.35;;;5.75;;
18720;SDS011;9489;50.948;3.114;2023-03-01T10:24:48;6.05;;;5.55;;
18720;SDS011;9489;50.948;3.114;2023-03-01T10:27:20;7.10;;;6.50;;
18720;SDS011;9489;50.948;3.114;2023-03-01T10:32:38;5.82;;;5.32;;
18720;SDS011;9489;50.948;3.114;2023-03-01T10:38:25;6.75;;;6.13;;
18720;SDS011;9489;50.948;3.114;2023-03-01T10:40:34;6.40;;;5.80;;
18720;SDS011;9489;50.948;3.114;2023-03-01T10:43:02;6.28;;;5.70;;
18720;SDS011;9489;50.948;3.114;2023-03-01T10:50:48;6.13;;;5.63;;
18720;SDS011;9489;50.948;3.114;2023-03-01T10:56:04;5.68;;;5.18;;
18720;SDS011;9489;50.948;3.114;2023-03-01T10:58:35;6.28;;;5.68;;
18720;SDS011;9489;50.948;3.114;2023-03-01T11:01:23;7.28;;;6.47;;
18720;SDS011;9489;50.948;3.114;2023-03-01T11:04:09;6.45;;;5.47;;
18720;SDS011;9489;50.948;3.114;2023-03-01T11:06:38;6.53;;;5.93;;
18720;SDS011;9489;50.948;3.114;2023-03-01T11:09:23;7.10;;;5.95;;
18720;SDS011;9489;50.948;3.114;2023-03-01T11:11:56;6.57;;;5.70;;
18720;SDS011;9489;50.948;3.114;2023-03-01T11:17:00;6.18;;;5.68;;
18720;SDS011;9489;50.948;3.114;2023-03-01T11:19:27;6.70;;;6.10;;
18720;SDS011;9489;50.948;3.114;2023-03-01T11:22:03;6.43;;;5.88;;
18720;SDS011;9489;50.948;3.114;2023-03-01T11:24:43;5.72;;;5.22;;
18720;SDS011;9489;50.948;3.114;2023-03-01T11:35:23;5.43;;;5.03;;
18720;SDS011;9489;50.948;3.114;2023-03-01T11:45:17;6.20;;;5.68;;
18720;SDS011;9489;50.948;3.114;2023-03-01T11:50:18;6.82;;;6.32;;
18720;SDS011;9489;50.948;3.114;2023-03-01T11:58:38;5.60;;;5.20;;
18720;SDS011;9489;50.948;3.114;2023-03-01T12:01:32;5.70;;;5.30;;
18720;SDS011;9489;50.948;3.114;2023-03-01T12:07:22;5.47;;;5.03;;
18720;SDS011;9489;50.948;3.114;2023-03-01T12:23:48;6.18;;;5.75;;
18720;SDS011;9489;50.948;3.114;2023-03-01T12:26:30;6.65;;;5.68;;
18720;SDS011;9489;50.948;3.114;2023-03-01T12:36:54;7.07;;;6.50;;
18720;SDS011;9489;50.948;3.114;2023-03-01T12:50:02;7.00;;;5.85;;
18720;SDS011;9489;50.948;3.114;2023-03-01T12:53:19;5.88;;;5.38;;
18720;SDS011;9489;50.948;3.114;2023-03-01T12:55:36;5.80;;;5.40;;
18720;SDS011;9489;50.948;3.114;2023-03-01T13:03:38;5.70;;;5.30;;
18720;SDS011;9489;50.948;3.114;2023-03-01T13:06:25;6.60;;;5.88;;
18720;SDS011;9489;50.948;3.114;2023-03-01T13:09:18;6.50;;;6.00;;
18720;SDS011;9489;50.948;3.114;2023-03-01T13:11:48;6.43;;;5.70;;
18720;SDS011;9489;50.948;3.114;2023-03-01T13:16:45;6.38;;;5.47;;
18720;SDS011;9489;50.948;3.114;2023-03-01T13:19:21;6.35;;;5.72;;
18720;SDS011;9489;50.948;3.114;2023-03-01T13:21:52;6.05;;;5.50;;
18720;SDS011;9489;50.948;3.114;2023-03-01T13:32:24;5.28;;;4.88;;
18720;SDS011;9489;50.948;3.114;2023-03-01T13:37:44;7.00;;;6.40;;
18720;SDS011;9489;50.948;3.114;2023-03-01T13:42:55;6.53;;;6.05;;
18720;SDS011;9489;50.948;3.114;2023-03-01T13:45:23;5.88;;;5.47;;
18720;SDS011;9489;50.948;3.114;2023-03-01T13:47:58;6.03;;;5.53;;
18720;SDS011;9489;50.948;3.114;2023-03-01T13:50:37;6.75;;;6.25;;
18720;SDS011;9489;50.948;3.114;2023-03-01T13:53:11;5.93;;;5.53;;
18720;SDS011;9489;50.948;3.114;2023-03-01T13:55:43;5.72;;;5.22;;
18720;SDS011;9489;50.948;3.114;2023-03-01T13:58:23;6.07;;;5.57;;
18720;SDS011;9489;50.948;3.114;2023-03-01T14:01:06;8.48;;;6.43;;
18720;SDS011;9489;50.948;3.114;2023-03-01T14:03:39;6.15;;;5.72;;
18720;SDS011;9489;50.948;3.114;2023-03-01T14:06:13;6.40;;;6.00;;
18720;SDS011;9489;50.948;3.114;2023-03-01T14:08:44;6.80;;;6.30;;
18720;SDS011;9489;50.948;3.114;2023-03-01T14:14:02;5.80;;;5.30;;
18720;SDS011;9489;50.948;3.114;2023-03-01T14:19:23;13.25;;;7.95;;
18720;SDS011;9489;50.948;3.114;2023-03-01T14:28:45;6.35;;;5.85;;
18720;SDS011;9489;50.948;3.114;2023-03-01T14:30:54;6.40;;;5.90;;
18720;SDS011;9489;50.948;3.114;2023-03-01T14:33:25;6.32;;;5.75;;
18720;SDS011;9489;50.948;3.114;2023-03-01T14:36:10;6.63;;;6.13;;
18720;SDS011;9489;50.948;3.114;2023-03-01T14:38:45;6.88;;;6.18;;
18720;SDS011;9489;50.948;3.114;2023-03-01T14:43:47;6.68;;;6.07;;
18720;SDS011;9489;50.948;3.114;2023-03-01T14:46:30;5.95;;;5.45;;
18720;SDS011;9489;50.948;3.114;2023-03-01T14:49:23;6.43;;;5.82;;
18720;SDS011;9489;50.948;3.114;2023-03-01T14:51:53;6.45;;;5.85;;
18720;SDS011;9489;50.948;3.114;2023-03-01T14:54:27;6.28;;;5.78;;
18720;SDS011;9489;50.948;3.114;2023-03-01T14:56:58;6.47;;;5.97;;
18720;SDS011;9489;50.948;3.114;2023-03-01T14:59:25;6.20;;;5.80;;
18720;SDS011;9489;50.948;3.114;2023-03-01T15:01:51;6.60;;;5.88;;
18720;SDS011;9489;50.948;3.114;2023-03-01T15:04:20;6.45;;;5.95;;
18720;SDS011;9489;50.948;3.114;2023-03-01T15:06:50;6.70;;;6.20;;
18720;SDS011;9489;50.948;3.114;2023-03-01T15:09:16;6.22;;;5.72;;
18720;SDS011;9489;50.948;3.114;2023-03-01T15:11:43;6.15;;;5.55;;
18720;SDS011;9489;50.948;3.114;2023-03-01T15:14:26;6.45;;;5.90;;
18720;SDS011;9489;50.948;3.114;2023-03-01T15:16:52;6.22;;;5.72;;
18720;SDS011;9489;50.948;3.114;2023-03-01T15:19:17;5.50;;;5.10;;
18720;SDS011;9489;50.948;3.114;2023-03-01T15:21:44;6.45;;;5.85;;
18720;SDS011;9489;50.948;3.114;2023-03-01T15:26:55;6.72;;;6.07;;
18720;SDS011;9489;50.948;3.114;2023-03-01T15:29:29;6.50;;;5.97;;
18720;SDS011;9489;50.948;3.114;2023-03-01T15:32:02;6.40;;;5.82;;
18720;SDS011;9489;50.948;3.114;2023-03-01T15:34:34;6.38;;;5.85;;
18720;SDS011;9489;50.948;3.114;2023-03-01T15:37:05;5.63;;;5.18;;
18720;SDS011;9489;50.948;3.114;2023-03-01T15:39:55;6.13;;;5.65;;
18720;SDS011;9489;50.948;3.114;2023-03-01T15:47:43;6.93;;;6.30;;
18720;SDS011;9489;50.948;3.114;2023-03-01T15:50:32;5.97;;;5.47;;
18720;SDS011;9489;50.948;3.114;2023-03-01T15:52:59;5.70;;;5.20;;
18720;SDS011;9489;50.948;3.114;2023-03-01T15:55:28;6.25;;;5.68;;
18720;SDS011;9489;50.948;3.114;2023-03-01T15:58:12;5.90;;;5.40;;
18720;SDS011;9489;50.948;3.114;2023-03-01T16:00:39;6.40;;;5.90;;
18720;SDS011;9489;50.948;3.114;2023-03-01T16:03:06;6.97;;;6.35;;
18720;SDS011;9489;50.948;3.114;2023-03-01T16:05:34;6.82;;;6.22;;
18720;SDS011;9489;50.948;3.114;2023-03-01T16:08:01;6.50;;;6.00;;
18720;SDS011;9489;50.948;3.114;2023-03-01T16:10:27;6.85;;;5.88;;
18720;SDS011;9489;50.948;3.114;2023-03-01T16:12:54;6.40;;;5.80;;
18720;SDS011;9489;50.948;3.114;2023-03-01T16:15:20;6.72;;;6.03;;
18720;SDS011;9489;50.948;3.114;2023-03-01T16:17:48;6.78;;;6.18;;
18720;SDS011;9489;50.948;3.114;2023-03-01T16:20:14;6.88;;;6.18;;
18720;SDS011;9489;50.948;3.114;2023-03-01T16:22:43;6.13;;;5.63;;
18720;SDS011;9489;50.948;3.114;2023-03-01T16:25:10;7.07;;;6.40;;
18720;SDS011;9489;50.948;3.114;2023-03-01T16:27:37;6.45;;;5.85;;
18720;SDS011;9489;50.948;3.114;2023-03-01T16:30:04;7.32;;;6.72;;
18720;SDS011;9489;50.948;3.114;2023-03-01T16:32:30;7.55;;;6.38;;
18720;SDS011;9489;50.948;3.114;2023-03-01T16:34:56;6.68;;;5.97;;
18720;SDS011;9489;50.948;3.114;2023-03-01T16:37:22;7.75;;;6.97;;
18720;SDS011;9489;50.948;3.114;2023-03-01T16:39:47;8.80;;;6.63;;
18720;SDS011;9489;50.948;3.114;2023-03-01T16:42:17;7.20;;;6.50;;
18720;SDS011;9489;50.948;3.114;2023-03-01T16:44:42;7.65;;;6.65;;
18720;SDS011;9489;50.948;3.114;2023-03-01T16:47:08;8.07;;;6.03;;
18720;SDS011;9489;50.948;3.114;2023-03-01T16:49:33;6.47;;;5.95;;
18720;SDS011;9489;50.948;3.114;2023-03-01T16:51:59;7.57;;;6.57;;
18720;SDS011;9489;50.948;3.114;2023-03-01T16:54:25;7.07;;;6.40;;
18720;SDS011;9489;50.948;3.114;2023-03-01T16:56:50;7.10;;;6.43;;
18720;SDS011;9489;50.948;3.114;2023-03-01T16:59:16;6.50;;;6.00;;
18720;SDS011;9489;50.948;3.114;2023-03-01T17:01:44;10.57;;;7.05;;
18720;SDS011;9489;50.948;3.114;2023-03-01T17:04:11;6.97;;;6.28;;
18720;SDS011;9489;50.948;3.114;2023-03-01T17:06:37;7.15;;;6.55;;
18720;SDS011;9489;50.948;3.114;2023-03-01T17:09:03;7.28;;;6.68;;
18720;SDS011;9489;50.948;3.114;2023-03-01T17:11:28;7.22;;;6.38;;
18720;SDS011;9489;50.948;3.114;2023-03-01T17:13:54;7.10;;;6.50;;
18720;SDS011;9489;50.948;3.114;2023-03-01T17:16:20;7.50;;;6.80;;